Time;durP1;ratioP1;P1;durP2;ratioP2;P2;SDS_P1;SDS_P2;PMS_P1;PMS_P2;Temp;Humidity;BMP_temperature;BMP_pressure;BME280_temperature;BME280_humidity;BME280_pressure;Samples;Min_cycle;Max_cycle;Signal;HPM_P1;HPM_P2
2022/04/24 00:00:04;;;;;;;18.23;9.88;;;14.20;48.30;;;;;;4951639;28;20023;-86
2022/04/24 00:02:30;;;;;;;12.80;8.77;;;14.20;48.40;;;;;;4952965;28;20046;-88
2022/04/24 00:04:56;;;;;;;11.25;8.80;;;14.20;48.40;;;;;;4938544;29;20032;-87
2022/04/24 00:07:22;;;;;;;13.18;8.90;;;14.20;48.40;;;;;;4936908;29;20122;-87
2022/04/24 00:09:48;;;;;;;10.65;8.35;;;14.20;48.50;;;;;;4950753;28;20158;-87
2022/04/24 00:12:16;;;;;;;13.57;9.20;;;14.20;48.50;;;;;;4934425;28;20038;-87
2022/04/24 00:14:43;;;;;;;12.63;9.02;;;14.10;48.40;;;;;;4950045;28;20090;-86
2022/04/24 00:17:09;;;;;;;11.77;8.98;;;14.10;48.50;;;;;;4952740;28;20025;-86
2022/04/24 00:19:35;;;;;;;17.63;9.52;;;14.10;48.50;;;;;;4952078;28;20060;-87
2022/04/24 00:22:01;;;;;;;11.80;8.55;;;14.10;48.50;;;;;;4950429;28;20031;-85
2022/04/24 00:24:27;;;;;;;15.43;9.18;;;14.10;49.20;;;;;;4940719;28;20034;-84
2022/04/24 00:26:54;;;;;;;11.35;7.95;;;14.10;48.70;;;;;;4939535;28;20418;-85
2022/04/24 00:29:21;;;;;;;10.57;8.40;;;14.00;48.50;;;;;;4924958;29;20040;-84
2022/04/24 00:31:47;;;;;;;18.60;8.75;;;14.00;48.60;;;;;;4962510;28;20087;-83
2022/04/24 00:34:12;;;;;;;14.02;8.82;;;14.00;48.60;;;;;;4975918;28;20042;-85
2022/04/24 00:36:39;;;;;;;13.85;9.27;;;14.00;48.70;;;;;;4991049;28;20039;-83
2022/04/24 00:39:05;;;;;;;16.13;9.25;;;14.00;48.80;;;;;;4968304;28;20047;-85
2022/04/24 00:41:31;;;;;;;13.65;9.15;;;13.90;48.70;;;;;;4968932;28;20248;-84
2022/04/24 00:43:57;;;;;;;14.77;8.63;;;13.90;48.70;;;;;;4944104;28;20059;-84
2022/04/24 00:46:43;;;;;;;13.25;8.73;;;13.90;48.90;;;;;;4951355;28;20062;-85
2022/04/24 00:49:11;;;;;;;10.48;7.60;;;13.90;48.90;;;;;;4950801;28;20102;-85
2022/04/24 00:51:42;;;;;;;16.70;9.13;;;13.90;48.90;;;;;;4951859;28;20110;-84
2022/04/24 00:54:10;;;;;;;17.65;8.93;;;13.80;48.80;;;;;;4940908;28;20277;-85
2022/04/24 00:56:37;;;;;;;12.95;9.10;;;13.80;48.90;;;;;;4950769;28;20106;-84
2022/04/24 00:59:08;;;;;;;13.65;8.60;;;13.80;48.90;;;;;;4944748;28;20031;-84
2022/04/24 01:01:35;;;;;;;14.65;8.63;;;13.80;49.00;;;;;;4951533;28;20043;-85
2022/04/24 01:04:04;;;;;;;14.48;9.10;;;13.70;48.80;;;;;;4950784;28;20063;-84
2022/04/24 01:06:41;;;;;;;18.75;8.65;;;13.70;48.90;;;;;;4950987;28;20434;-85
2022/04/24 01:09:13;;;;;;;14.30;8.95;;;13.70;49.00;;;;;;4950082;28;20035;-86
2022/04/24 01:11:40;;;;;;;12.00;9.68;;;13.70;49.00;;;;;;4950648;28;20129;-86
2022/04/24 01:14:07;;;;;;;16.38;8.68;;;13.70;49.10;;;;;;4950038;28;20103;-84
2022/04/24 01:16:33;;;;;;;15.90;9.30;;;13.60;48.90;;;;;;4943776;28;20035;-84
2022/04/24 01:18:59;;;;;;;12.38;8.40;;;13.60;49.00;;;;;;4948742;28;20027;-84
2022/04/24 01:21:25;;;;;;;15.98;9.88;;;13.60;49.10;;;;;;4950915;28;20049;-84
2022/04/24 01:23:51;;;;;;;16.70;9.20;;;13.60;49.20;;;;;;4957491;28;20075;-84
2022/04/24 01:26:18;;;;;;;11.38;9.00;;;13.50;49.00;;;;;;4949740;28;20063;-84
2022/04/24 01:28:44;;;;;;;15.85;9.30;;;13.50;49.00;;;;;;4951756;28;20043;-84
2022/04/24 01:31:10;;;;;;;15.15;9.80;;;13.50;49.10;;;;;;4946027;29;20028;-83
2022/04/24 01:33:36;;;;;;;13.60;9.73;;;13.50;49.20;;;;;;4949101;28;20491;-84
2022/04/24 01:36:03;;;;;;;16.50;9.98;;;13.40;49.10;;;;;;4948614;29;20039;-84
2022/04/24 01:38:29;;;;;;;17.35;10.25;;;13.40;49.20;;;;;;4949552;28;20479;-84
2022/04/24 01:40:55;;;;;;;13.35;9.52;;;13.40;49.30;;;;;;4946120;29;20036;-84
2022/04/24 01:43:21;;;;;;;12.60;8.90;;;13.30;49.20;;;;;;4947720;28;20122;-84
2022/04/24 01:45:47;;;;;;;14.48;9.13;;;13.30;49.30;;;;;;4954008;28;20497;-84
2022/04/24 01:48:12;;;;;;;15.32;9.15;;;13.30;49.30;;;;;;4945559;28;20113;-85
2022/04/24 01:50:38;;;;;;;17.38;10.07;;;13.30;49.40;;;;;;4949113;29;20027;-86
2022/04/24 01:53:05;;;;;;;16.00;10.27;;;13.20;49.40;;;;;;4950224;29;20058;-85
2022/04/24 01:55:31;;;;;;;15.20;9.55;;;13.20;49.40;;;;;;4949378;29;20035;-85
2022/04/24 01:57:57;;;;;;;18.20;11.02;;;13.20;49.50;;;;;;4946242;28;20086;-86
2022/04/24 02:00:23;;;;;;;17.60;9.27;;;13.20;50.10;;;;;;4931796;29;20028;-86
2022/04/24 02:02:49;;;;;;;13.60;9.60;;;13.10;49.40;;;;;;4950018;29;20035;-86
2022/04/24 02:05:17;;;;;;;17.00;11.05;;;13.10;49.50;;;;;;4949628;28;20046;-87
2022/04/24 02:07:43;;;;;;;25.80;10.57;;;13.10;49.60;;;;;;4946643;28;20035;-84
2022/04/24 02:10:10;;;;;;;15.43;10.20;;;13.10;49.60;;;;;;4960238;28;20439;-84
2022/04/24 02:12:40;;;;;;;15.10;9.43;;;13.10;49.70;;;;;;4947238;29;20471;-86
2022/04/24 02:15:08;;;;;;;16.38;9.68;;;13.00;49.60;;;;;;4946268;28;20031;-85
2022/04/24 02:17:34;;;;;;;13.15;9.50;;;13.00;49.70;;;;;;4948349;28;20467;-85
2022/04/24 02:20:01;;;;;;;14.95;8.43;;;13.00;49.80;;;;;;4950398;28;20067;-85
2022/04/24 02:22:34;;;;;;;14.93;9.90;;;13.00;49.80;;;;;;4955295;28;20031;-84
2022/04/24 02:25:00;;;;;;;;;;;13.00;49.90;;;;;;4957657;28;20102;-85
2022/04/24 02:27:28;;;;;;;14.20;9.13;;;13.00;49.90;;;;;;4955906;28;19923;-85
2022/04/24 02:29:54;;;;;;;13.65;8.73;;;12.90;49.60;;;;;;4943347;28;20119;-85
2022/04/24 02:32:20;;;;;;;15.48;9.70;;;12.90;49.60;;;;;;4950481;29;20162;-86
2022/04/24 02:34:46;;;;;;;12.95;8.52;;;12.90;49.80;;;;;;4954522;28;20061;-84
2022/04/24 02:37:11;;;;;;;13.15;8.60;;;12.90;49.90;;;;;;4954940;28;20114;-85
2022/04/24 02:39:37;;;;;;;14.70;9.50;;;12.90;50.00;;;;;;4949813;29;20031;-84
2022/04/24 02:42:04;;;;;;;15.05;9.52;;;12.80;49.90;;;;;;4954859;29;20031;-84
2022/04/24 02:44:30;;;;;;;13.60;9.73;;;12.80;50.00;;;;;;4966606;28;20579;-84
2022/04/24 02:46:55;;;;;;;16.45;9.30;;;12.80;50.00;;;;;;4943543;28;20123;-85
2022/04/24 02:49:21;;;;;;;14.38;9.77;;;12.70;49.90;;;;;;4947679;28;20049;-84
2022/04/24 02:51:47;;;;;;;13.93;9.45;;;12.70;50.00;;;;;;4944882;28;20032;-84
2022/04/24 02:54:13;;;;;;;12.77;9.27;;;12.70;50.10;;;;;;4948624;29;20028;-84
2022/04/24 02:56:39;;;;;;;12.77;8.05;;;12.70;50.20;;;;;;4919205;29;20114;-84
2022/04/24 02:59:05;;;;;;;15.38;9.82;;;12.60;50.10;;;;;;4941983;29;20066;-85
2022/04/24 03:01:31;;;;;;;13.90;8.60;;;12.60;50.10;;;;;;4956032;28;20027;-84
2022/04/24 03:03:57;;;;;;;14.20;9.02;;;12.60;50.10;;;;;;4962598;28;20039;-85
2022/04/24 03:06:23;;;;;;;14.45;8.75;;;12.70;50.40;;;;;;4944865;29;20027;-85
2022/04/24 03:08:49;;;;;;;12.77;8.43;;;12.60;50.20;;;;;;4954226;28;20513;-85
2022/04/24 03:11:15;;;;;;;12.98;8.77;;;12.60;50.30;;;;;;4962142;28;20039;-85
2022/04/24 03:13:42;;;;;;;16.15;9.75;;;12.60;50.30;;;;;;4952621;28;20032;-83
2022/04/24 03:16:09;;;;;;;17.58;9.55;;;12.60;50.40;;;;;;4945449;28;20031;-84
2022/04/24 03:18:35;;;;;;;12.30;9.40;;;12.70;50.60;;;;;;4952484;28;20082;-84
2022/04/24 03:21:01;;;;;;;15.27;10.00;;;12.60;50.40;;;;;;4940715;28;20062;-83
2022/04/24 03:23:27;;;;;;;15.73;9.00;;;12.60;50.50;;;;;;4954017;28;20063;-83
2022/04/24 03:25:53;;;;;;;15.82;8.82;;;12.60;50.50;;;;;;4954287;28;20491;-84
2022/04/24 03:28:19;;;;;;;13.23;9.05;;;12.60;50.50;;;;;;4953217;28;20036;-83
2022/04/24 03:30:45;;;;;;;14.43;8.07;;;12.60;50.60;;;;;;4949510;28;20500;-84
2022/04/24 03:33:11;;;;;;;15.02;9.70;;;12.60;50.60;;;;;;4951955;29;20174;-84
2022/04/24 03:35:37;;;;;;;13.77;8.40;;;12.60;50.60;;;;;;4944994;29;20054;-82
2022/04/24 03:38:03;;;;;;;14.05;8.90;;;12.60;50.60;;;;;;4951574;28;20483;-83
2022/04/24 03:40:29;;;;;;;15.27;9.27;;;12.60;50.70;;;;;;4952834;28;20031;-83
2022/04/24 03:42:55;;;;;;;12.70;9.13;;;12.50;50.50;;;;;;4949366;28;20039;-84
2022/04/24 03:45:22;;;;;;;14.85;9.15;;;12.60;50.80;;;;;;4943778;29;20040;-83
2022/04/24 03:47:48;;;;;;;11.00;8.05;;;12.60;50.80;;;;;;4960346;28;20097;-83
2022/04/24 03:50:14;;;;;;;14.68;8.30;;;12.50;50.70;;;;;;4953461;28;20027;-84
2022/04/24 03:52:41;;;;;;;12.77;8.80;;;12.50;50.70;;;;;;4948283;28;20063;-84
2022/04/24 03:55:07;;;;;;;11.80;8.52;;;12.50;50.80;;;;;;4953384;28;20070;-84
2022/04/24 03:57:34;;;;;;;14.95;9.93;;;12.50;50.90;;;;;;4935736;29;20143;-84
2022/04/24 04:00:00;;;;;;;14.70;9.85;;;12.50;50.90;;;;;;4948371;28;20126;-84
2022/04/24 04:02:26;;;;;;;16.17;9.45;;;12.50;50.90;;;;;;4950625;29;20121;-84
2022/04/24 04:04:52;;;;;;;16.15;9.20;;;12.50;50.90;;;;;;4935612;29;20028;-84
2022/04/24 04:07:18;;;;;;;13.00;8.73;;;12.40;50.90;;;;;;4952409;28;20058;-84
2022/04/24 04:09:44;;;;;;;15.40;9.65;;;12.40;50.90;;;;;;4944046;28;20049;-85
2022/04/24 04:12:13;;;;;;;13.50;8.73;;;12.40;50.90;;;;;;4938329;28;20027;-84
2022/04/24 04:14:39;;;;;;;13.07;8.48;;;12.40;50.90;;;;;;4950693;28;20475;-84
2022/04/24 04:17:05;;;;;;;11.30;9.55;;;12.40;51.00;;;;;;4951596;29;20122;-84
2022/04/24 04:19:31;;;;;;;18.02;9.77;;;12.40;51.00;;;;;;4959490;28;20448;-83
2022/04/24 04:21:57;;;;;;;17.17;9.27;;;12.40;51.10;;;;;;4947892;28;20197;-84
2022/04/24 04:24:23;;;;;;;14.35;8.88;;;12.40;51.10;;;;;;4953232;28;20474;-84
2022/04/24 04:26:49;;;;;;;15.23;8.18;;;12.30;50.90;;;;;;4953931;29;20498;-84
2022/04/24 04:29:15;;;;;;;10.98;8.05;;;12.40;51.20;;;;;;4954406;29;20035;-82
2022/04/24 04:31:42;;;;;;;16.10;10.57;;;12.40;51.20;;;;;;4975510;28;20023;-83
2022/04/24 04:34:07;;;;;;;15.15;9.40;;;12.30;51.10;;;;;;4976612;28;20023;-83
2022/04/24 04:36:33;;;;;;;13.32;9.20;;;12.30;51.10;;;;;;4975955;28;20043;-85
2022/04/24 04:38:59;;;;;;;15.30;8.63;;;12.30;51.20;;;;;;4973283;28;20019;-83
2022/04/24 04:41:25;;;;;;;12.48;8.60;;;12.30;51.30;;;;;;4975847;28;20059;-84
2022/04/24 04:43:51;;;;;;;15.85;9.40;;;12.30;51.30;;;;;;4975478;28;20032;-83
2022/04/24 04:46:17;;;;;;;14.15;8.88;;;12.20;51.20;;;;;;4959793;29;20098;-84
2022/04/24 04:48:43;;;;;;;19.00;9.00;;;12.20;51.30;;;;;;4971355;28;20054;-85
2022/04/24 04:51:09;;;;;;;15.80;8.38;;;12.20;51.40;;;;;;4957337;29;20035;-85
2022/04/24 04:53:35;;;;;;;13.98;8.63;;;12.20;51.40;;;;;;4952712;28;20030;-83
2022/04/24 04:56:01;;;;;;;14.32;8.60;;;12.20;51.50;;;;;;4967223;28;20035;-84
2022/04/24 04:58:27;;;;;;;14.70;9.23;;;12.20;51.50;;;;;;4949082;29;20035;-84
2022/04/24 05:00:52;;;;;;;17.35;9.48;;;12.20;51.60;;;;;;4949980;28;20058;-84
2022/04/24 05:03:18;;;;;;;14.60;8.13;;;12.20;51.60;;;;;;4949724;28;20035;-84
2022/04/24 05:05:44;;;;;;;13.45;8.55;;;12.20;51.70;;;;;;4950871;28;20098;-86
2022/04/24 05:08:10;;;;;;;18.00;9.23;;;12.20;51.70;;;;;;4953394;28;20130;-86
2022/04/24 05:10:36;;;;;;;10.02;8.15;;;12.20;51.80;;;;;;4960771;28;20444;-84
2022/04/24 05:13:01;;;;;;;12.68;9.43;;;12.20;51.90;;;;;;4938600;29;20399;-84
2022/04/24 05:15:27;;;;;;;13.50;9.13;;;12.20;51.80;;;;;;4946707;28;20035;-83
2022/04/24 05:17:53;;;;;;;16.02;8.68;;;12.20;51.90;;;;;;4949874;28;20038;-84
2022/04/24 05:20:20;;;;;;;12.70;8.27;;;12.20;51.90;;;;;;4950019;28;20479;-83
2022/04/24 05:22:45;;;;;;;12.02;8.73;;;12.20;51.90;;;;;;4955732;28;20037;-83
2022/04/24 05:25:12;;;;;;;15.07;8.88;;;12.20;52.00;;;;;;4948177;28;20028;-83
2022/04/24 05:27:39;;;;;;;13.48;8.88;;;12.20;52.00;;;;;;4950281;28;20094;-84
2022/04/24 05:30:07;;;;;;;16.25;8.85;;;12.20;52.00;;;;;;4950288;28;20395;-84
2022/04/24 05:32:48;;;;;;;12.13;8.13;;;12.20;52.00;;;;;;4948891;28;20051;-84
2022/04/24 05:35:15;;;;;;;15.30;8.98;;;12.20;52.10;;;;;;4947204;29;20144;-85
2022/04/24 05:37:41;;;;;;;12.07;8.68;;;12.30;52.20;;;;;;4960366;28;20042;-85
2022/04/24 05:40:08;;;;;;;15.88;8.07;;;12.30;52.20;;;;;;4956830;28;20406;-85
2022/04/24 05:42:34;;;;;;;14.52;7.63;;;12.30;52.20;;;;;;4956974;28;20036;-85
2022/04/24 05:45:01;;;;;;;10.95;7.97;;;12.30;52.20;;;;;;4954309;28;20062;-83
2022/04/24 05:47:27;;;;;;;16.42;8.73;;;12.30;52.20;;;;;;4940188;28;20051;-86
2022/04/24 05:49:53;;;;;;;12.77;8.75;;;12.30;52.20;;;;;;4954090;29;20102;-86
2022/04/24 05:52:19;;;;;;;14.10;8.88;;;12.40;52.30;;;;;;4954673;28;20050;-92
2022/04/24 05:54:45;;;;;;;12.85;8.07;;;12.40;52.30;;;;;;4952404;28;20462;-89
2022/04/24 05:57:11;;;;;;;15.07;9.63;;;12.40;52.30;;;;;;4953451;29;20114;-85
2022/04/24 05:59:37;;;;;;;14.10;8.45;;;12.40;52.30;;;;;;4948439;28;20395;-86
2022/04/24 06:02:03;;;;;;;14.93;8.27;;;12.50;52.40;;;;;;4947421;29;20020;-85
2022/04/24 06:04:28;;;;;;;12.85;8.45;;;12.50;52.40;;;;;;4944680;28;20063;-80
2022/04/24 06:06:54;;;;;;;12.13;8.52;;;12.60;52.60;;;;;;4947741;28;20062;-84
2022/04/24 06:09:20;;;;;;;14.55;8.25;;;12.60;52.50;;;;;;4949467;28;20055;-83
2022/04/24 06:11:46;;;;;;;14.05;8.32;;;12.60;52.70;;;;;;4952655;28;20034;-85
2022/04/24 06:14:13;;;;;;;12.73;8.32;;;12.70;52.50;;;;;;4950270;29;20054;-85
2022/04/24 06:16:38;;;;;;;19.58;9.77;;;12.70;52.40;;;;;;4951548;28;20042;-85
2022/04/24 06:19:04;;;;;;;12.30;7.72;;;12.80;52.50;;;;;;4969278;28;20031;-85
2022/04/24 06:21:30;;;;;;;13.75;9.40;;;12.80;52.40;;;;;;4948805;29;20095;-86
2022/04/24 06:23:56;;;;;;;16.02;7.90;;;12.90;52.60;;;;;;4950749;28;20035;-86
2022/04/24 06:26:22;;;;;;;12.32;7.93;;;12.90;52.50;;;;;;4942054;28;20023;-85
2022/04/24 06:28:48;;;;;;;14.43;8.50;;;13.00;52.60;;;;;;4954034;28;20043;-84
2022/04/24 06:31:14;;;;;;;15.85;8.60;;;13.00;52.50;;;;;;4953903;28;20057;-86
2022/04/24 06:33:40;;;;;;;16.35;7.50;;;13.10;52.60;;;;;;4952211;28;20148;-83
2022/04/24 06:36:09;;;;;;;19.38;9.10;;;13.20;52.70;;;;;;4948974;28;20130;-85
2022/04/24 06:38:35;;;;;;;16.98;10.43;;;13.20;52.60;;;;;;4949045;28;20035;-85
2022/04/24 06:41:02;;;;;;;16.27;9.88;;;13.20;52.40;;;;;;4953204;29;20035;-84
2022/04/24 06:43:28;;;;;;;17.38;9.57;;;13.30;52.30;;;;;;4966779;28;20071;-89
2022/04/24 06:45:54;;;;;;;20.58;10.95;;;13.30;52.10;;;;;;4948886;28;20058;-83
2022/04/24 06:48:20;;;;;;;22.42;9.38;;;13.30;52.10;;;;;;4945760;28;20117;-84
2022/04/24 06:50:47;;;;;;;22.38;10.07;;;13.30;52.00;;;;;;4950584;29;20034;-83
2022/04/24 06:53:16;;;;;;;19.92;11.52;;;13.30;52.00;;;;;;4950917;28;20479;-81
2022/04/24 06:55:43;;;;;;;22.52;9.18;;;13.40;52.10;;;;;;4955338;28;20038;-81
2022/04/24 06:58:11;;;;;;;16.42;9.73;;;13.40;52.00;;;;;;4964865;28;20039;-82
2022/04/24 07:00:38;;;;;;;15.60;9.40;;;13.40;52.20;;;;;;4949694;28;20125;-82
2022/04/24 07:03:24;;;;;;;17.65;8.65;;;13.50;52.80;;;;;;4947741;28;20039;-83
2022/04/24 07:05:54;;;;;;;15.05;8.38;;;13.60;54.00;;;;;;4949966;28;20035;-81
2022/04/24 07:08:21;;;;;;;13.63;7.82;;;13.70;54.00;;;;;;4953770;28;20073;-83
2022/04/24 07:10:47;;;;;;;16.77;8.00;;;14.00;54.90;;;;;;4961196;28;20399;-83
2022/04/24 07:13:13;;;;;;;16.73;8.07;;;14.20;55.70;;;;;;4948666;29;20027;-78
2022/04/24 07:15:39;;;;;;;14.93;6.85;;;14.40;56.20;;;;;;4947617;29;20031;-82
2022/04/24 07:18:06;;;;;;;11.35;7.00;;;14.70;56.80;;;;;;4954843;28;20031;-83
2022/04/24 07:20:32;;;;;;;13.88;7.45;;;14.90;57.10;;;;;;4946807;28;20031;-84
2022/04/24 07:23:02;;;;;;;12.68;7.50;;;15.20;57.60;;;;;;4969526;28;20041;-84
2022/04/24 07:25:37;;;;;;;13.07;7.07;;;15.50;57.90;;;;;;4946629;29;20089;-83
2022/04/24 07:28:04;;;;;;;8.40;5.78;;;15.90;58.10;;;;;;4954507;28;20046;-83
2022/04/24 07:30:30;;;;;;;12.80;6.50;;;16.10;57.90;;;;;;4950776;29;20035;-83
2022/04/24 07:32:57;;;;;;;13.57;6.63;;;16.30;57.90;;;;;;4950297;28;20046;-83
2022/04/24 07:35:34;;;;;;;10.63;6.82;;;16.50;58.10;;;;;;4950609;28;20027;-84
2022/04/24 07:38:01;;;;;;;13.10;7.22;;;16.70;58.30;;;;;;4947942;28;20577;-84
2022/04/24 07:40:29;;;;;;;10.57;7.07;;;16.70;57.80;;;;;;4949735;28;20041;-82
2022/04/24 07:42:56;;;;;;;15.02;7.38;;;16.80;57.80;;;;;;4949657;28;20486;-83
2022/04/24 07:45:41;;;;;;;10.63;7.07;;;16.90;57.60;;;;;;4950082;28;20071;-82
2022/04/24 07:48:09;;;;;;;12.57;6.93;;;16.90;57.30;;;;;;4944971;28;20487;-83
2022/04/24 07:50:37;;;;;;;14.35;7.65;;;16.90;57.00;;;;;;4950838;28;20031;-84
2022/04/24 07:53:04;;;;;;;19.38;9.20;;;17.00;56.70;;;;;;4938578;29;20113;-82
2022/04/24 07:55:30;;;;;;;16.80;8.80;;;17.10;56.40;;;;;;4946242;28;20039;-80
2022/04/24 07:57:57;;;;;;;25.08;11.20;;;17.20;55.60;;;;;;4943083;28;20035;-82
2022/04/24 08:00:25;;;;;;;20.05;9.52;;;17.40;54.70;;;;;;4945661;29;20195;-82
2022/04/24 08:02:57;;;;;;;17.17;8.82;;;17.40;53.70;;;;;;4946864;28;20490;-79
2022/04/24 08:05:29;;;;;;;14.80;7.10;;;17.60;53.30;;;;;;4937452;28;20031;-81
2022/04/24 08:07:56;;;;;;;17.80;8.25;;;17.70;52.70;;;;;;4955933;28;20054;-80
2022/04/24 08:10:24;;;;;;;21.27;8.40;;;18.00;52.80;;;;;;4950690;28;20035;-85
2022/04/24 08:12:51;;;;;;;16.42;8.60;;;18.10;52.00;;;;;;4950107;28;20082;-87
2022/04/24 08:15:17;;;;;;;17.95;8.02;;;18.00;51.40;;;;;;4945718;28;20581;-86
2022/04/24 08:17:44;;;;;;;16.85;10.02;;;17.90;51.10;;;;;;4944447;28;20038;-87
2022/04/24 08:20:12;;;;;;;16.40;8.23;;;17.70;50.80;;;;;;4929329;29;20502;-86
2022/04/24 08:22:49;;;;;;;20.70;10.20;;;17.40;50.50;;;;;;4949456;28;20038;-86
2022/04/24 08:25:21;;;;;;;16.80;8.73;;;17.20;50.30;;;;;;4952748;28;20514;-87
2022/04/24 08:27:48;;;;;;;16.98;8.55;;;17.20;50.60;;;;;;4964060;28;20069;-84
2022/04/24 08:30:15;;;;;;;15.55;8.80;;;17.10;50.50;;;;;;4973209;28;20031;-84
2022/04/24 08:32:42;;;;;;;17.33;9.13;;;17.00;50.40;;;;;;4973959;28;20118;-87
2022/04/24 08:35:11;;;;;;;19.65;10.10;;;17.00;50.40;;;;;;4983737;28;20119;-90
2022/04/24 08:37:41;;;;;;;20.83;9.68;;;16.90;50.20;;;;;;4957532;28;20062;-90
2022/04/24 08:40:09;;;;;;;20.80;11.30;;;16.80;50.00;;;;;;4944900;29;20603;-92
2022/04/24 08:42:36;;;;;;;14.57;9.18;;;16.80;50.00;;;;;;4951522;28;20530;-85
2022/04/24 08:45:04;;;;;;;21.25;9.25;;;16.70;50.50;;;;;;4949149;28;20051;-84
2022/04/24 08:47:30;;;;;;;17.55;8.32;;;16.60;49.80;;;;;;4952046;28;20047;-84
2022/04/24 08:49:58;;;;;;;18.40;8.73;;;16.60;49.70;;;;;;4957068;28;20032;-84
2022/04/24 08:52:27;;;;;;;16.60;9.55;;;16.70;49.90;;;;;;4951339;29;20436;-85
2022/04/24 08:54:54;;;;;;;20.10;9.25;;;16.60;49.60;;;;;;4949317;28;20081;-90
2022/04/24 08:57:21;;;;;;;15.20;9.02;;;16.70;49.70;;;;;;4953966;28;20027;-87
2022/04/24 08:59:47;;;;;;;20.40;9.65;;;16.60;49.40;;;;;;4944713;28;20479;-85
2022/04/24 09:02:14;;;;;;;15.25;9.15;;;16.70;49.50;;;;;;4935226;28;20030;-86
2022/04/24 09:04:40;;;;;;;24.27;10.25;;;16.70;49.40;;;;;;4951582;29;20042;-85
2022/04/24 09:07:09;;;;;;;18.65;8.98;;;16.70;49.20;;;;;;4951379;29;20431;-84
2022/04/24 09:09:42;;;;;;;17.90;9.77;;;16.70;49.20;;;;;;4952281;28;20242;-86
2022/04/24 09:12:09;;;;;;;24.25;10.35;;;16.70;49.20;;;;;;4951676;29;20510;-82
2022/04/24 09:14:35;;;;;;;17.85;8.98;;;16.70;49.20;;;;;;4950715;28;20387;-83
2022/04/24 09:17:18;;;;;;;16.17;8.95;;;16.70;49.10;;;;;;4949661;28;20046;-84
2022/04/24 09:19:45;;;;;;;22.23;8.85;;;16.80;49.00;;;;;;4949625;28;20041;-85
2022/04/24 09:22:11;;;;;;;17.17;9.35;;;16.80;48.90;;;;;;4951942;28;20139;-83
2022/04/24 09:24:45;;;;;;;19.20;9.32;;;16.80;48.80;;;;;;4951874;28;20042;-85
2022/04/24 09:27:21;;;;;;;17.65;9.23;;;16.80;48.70;;;;;;4946461;28;20103;-89
2022/04/24 09:29:54;;;;;;;19.48;9.23;;;16.80;48.70;;;;;;4952202;28;20483;-86
2022/04/24 09:32:23;;;;;;;21.40;10.43;;;16.80;48.80;;;;;;4951163;28;20050;-86
2022/04/24 09:34:49;;;;;;;16.98;9.07;;;16.70;48.70;;;;;;4950255;28;20043;-87
2022/04/24 09:37:15;;;;;;;17.52;8.43;;;16.70;48.60;;;;;;4948190;28;20073;-88
2022/04/24 09:39:41;;;;;;;18.83;9.30;;;16.80;48.80;;;;;;4949218;28;20062;-85
2022/04/24 09:42:12;;;;;;;17.02;8.82;;;16.70;48.70;;;;;;4947533;28;20031;-89
2022/04/24 09:44:47;;;;;;;20.85;10.07;;;16.80;48.80;;;;;;4954849;28;20054;-86
2022/04/24 09:47:17;;;;;;;20.50;9.73;;;16.70;48.50;;;;;;4951692;28;20062;-90
2022/04/24 09:49:49;;;;;;;15.45;8.02;;;16.70;48.50;;;;;;4947202;28;20418;-93
2022/04/24 09:52:18;;;;;;;17.17;9.13;;;16.80;48.70;;;;;;4965998;28;20062;-93
2022/04/24 09:54:46;;;;;;;14.98;8.82;;;16.70;48.50;;;;;;4954980;28;20033;-83
2022/04/24 09:57:14;;;;;;;17.63;8.20;;;16.80;48.60;;;;;;4947635;28;20028;-85
2022/04/24 09:59:45;;;;;;;15.00;9.15;;;16.80;48.60;;;;;;4947065;28;20031;-85
2022/04/24 10:02:14;;;;;;;16.30;9.02;;;16.80;48.50;;;;;;4949573;28;20035;-86
2022/04/24 10:04:41;;;;;;;17.48;8.57;;;16.90;48.60;;;;;;4949478;28;20651;-87
2022/04/24 10:07:08;;;;;;;13.50;7.82;;;17.00;48.70;;;;;;4957874;28;20031;-83
2022/04/24 10:09:39;;;;;;;17.55;8.48;;;17.00;48.50;;;;;;4949745;28;20062;-84
2022/04/24 10:12:06;;;;;;;15.43;8.80;;;17.10;48.60;;;;;;4941001;29;20500;-86
2022/04/24 10:14:52;;;;;;;15.48;8.15;;;17.20;48.60;;;;;;4944590;29;20082;-87
2022/04/24 10:17:43;;;;;;;16.38;8.57;;;17.20;48.50;;;;;;4938832;29;20035;-86
2022/04/24 10:20:43;;;;;;;15.00;9.30;;;17.30;48.60;;;;;;4948400;28;20119;-88
2022/04/24 10:23:10;;;;;;;13.50;8.50;;;17.40;48.70;;;;;;4945178;28;20045;-88
2022/04/24 10:25:40;;;;;;;16.67;9.20;;;17.40;48.60;;;;;;4948768;28;20031;-88
2022/04/24 10:28:11;;;;;;;15.15;9.52;;;17.50;48.80;;;;;;4945323;28;20925;-88
2022/04/24 10:30:38;;;;;;;13.45;9.73;;;17.50;48.80;;;;;;4947157;28;20443;-88
2022/04/24 10:33:21;;;;;;;15.68;8.38;;;17.50;48.80;;;;;;4947845;28;20727;-88
2022/04/24 10:35:48;;;;;;;15.65;8.90;;;17.60;49.00;;;;;;4947535;29;20024;-90
2022/04/24 10:38:14;;;;;;;16.63;9.80;;;17.70;49.20;;;;;;4944490;28;20035;-89
2022/04/24 10:40:40;;;;;;;14.45;9.30;;;17.70;49.10;;;;;;4950082;28;20035;-93
2022/04/24 10:43:10;;;;;;;13.38;9.45;;;17.80;49.20;;;;;;4948561;28;20038;-93
2022/04/24 10:45:46;;;;;;;17.63;8.70;;;17.90;49.30;;;;;;4954950;28;20032;-93
2022/04/24 10:48:17;;;;;;;18.23;10.10;;;17.90;49.20;;;;;;4953649;28;20103;-91
2022/04/24 10:50:52;;;;;;;16.50;8.60;;;18.00;49.20;;;;;;4930481;29;20027;-89
2022/04/24 10:53:18;;;;;;;14.55;9.30;;;18.10;49.20;;;;;;4946034;28;20115;-89
2022/04/24 10:55:44;;;;;;;13.35;9.10;;;18.10;49.00;;;;;;4961795;28;20035;-90
2022/04/24 10:58:11;;;;;;;14.77;9.35;;;18.20;49.00;;;;;;4952061;28;20043;-90
2022/04/24 11:00:38;;;;;;;14.52;9.60;;;18.20;49.00;;;;;;4950292;28;20027;-91
2022/04/24 11:03:16;;;;;;;16.42;9.88;;;18.30;49.00;;;;;;4947577;28;20035;-89
2022/04/24 11:05:44;;;;;;;14.15;8.35;;;18.40;49.00;;;;;;4953170;28;20476;-92
2022/04/24 11:08:21;;;;;;;13.90;9.32;;;18.40;48.90;;;;;;4947604;28;20050;-91
2022/04/24 11:11:03;;;;;;;13.88;8.63;;;18.50;48.90;;;;;;4947043;28;20027;-88
2022/04/24 11:13:30;;;;;;;12.35;8.75;;;18.60;49.00;;;;;;4951533;28;20122;-88
2022/04/24 11:15:59;;;;;;;13.95;9.00;;;18.60;48.90;;;;;;4962887;29;20027;-86
2022/04/24 11:18:27;;;;;;;12.65;9.13;;;18.70;48.90;;;;;;4963182;28;20087;-89
2022/04/24 11:21:03;;;;;;;11.93;8.50;;;18.80;48.90;;;;;;4946648;29;20023;-87
2022/04/24 11:23:35;;;;;;;11.02;8.10;;;18.90;48.80;;;;;;4948987;28;20109;-86
2022/04/24 11:26:05;;;;;;;14.37;8.67;;;18.90;48.50;;;;;;4953019;28;20019;-86
2022/04/24 11:28:40;;;;;;;10.80;7.05;;;18.90;48.30;;;;;;4970515;28;20095;-87
2022/04/24 11:31:11;;;;;;;15.98;8.23;;;18.90;48.20;;;;;;4976543;28;20115;-87
2022/04/24 11:33:38;;;;;;;10.40;7.65;;;19.00;48.30;;;;;;4970527;28;20063;-86
2022/04/24 11:36:05;;;;;;;15.27;8.13;;;19.00;48.30;;;;;;4974348;28;20053;-84
2022/04/24 11:38:32;;;;;;;13.32;8.23;;;19.10;48.50;;;;;;4976033;28;20367;-85
2022/04/24 11:41:03;;;;;;;12.63;8.98;;;19.10;48.20;;;;;;4974382;28;20019;-84
2022/04/24 11:43:29;;;;;;;17.90;8.93;;;19.20;48.10;;;;;;4994932;28;20027;-82
2022/04/24 11:51:26;;;;;;;8.57;7.68;;;19.30;47.80;;;;;;4945911;28;20111;-79
2022/04/24 11:53:53;;;;;;;13.82;7.45;;;19.40;47.70;;;;;;4947292;29;20138;-81
2022/04/24 11:56:19;;;;;;;11.82;6.35;;;19.40;48.10;;;;;;4952386;28;20039;-81
2022/04/24 11:58:45;;;;;;;10.55;7.63;;;19.50;47.70;;;;;;4950136;28;20059;-82
2022/04/24 12:01:17;;;;;;;12.15;8.10;;;19.60;47.70;;;;;;4952197;28;20066;-81
2022/04/24 12:03:45;;;;;;;11.05;7.38;;;19.80;47.70;;;;;;4950381;28;20059;-81
2022/04/24 12:06:12;;;;;;;12.60;7.72;;;20.00;47.60;;;;;;4933863;29;20031;-82
2022/04/24 12:08:47;;;;;;;12.70;7.97;;;20.10;47.40;;;;;;4950201;28;20050;-82
2022/04/24 12:11:27;;;;;;;12.60;7.15;;;20.30;47.50;;;;;;4951721;28;20038;-83
2022/04/24 12:14:11;;;;;;;8.27;6.45;;;20.30;47.00;;;;;;4950733;28;20041;-80
2022/04/24 12:16:39;;;;;;;10.55;7.20;;;20.40;47.10;;;;;;4952956;29;20419;-81
2022/04/24 12:19:08;;;;;;;12.18;7.15;;;20.40;47.00;;;;;;4936965;29;20151;-80
2022/04/24 12:21:51;;;;;;;10.55;6.93;;;20.50;46.80;;;;;;4980684;28;20107;-81
2022/04/24 12:24:17;;;;;;;;;;;20.50;46.30;;;;;;4951327;28;20091;-79
2022/04/24 12:26:47;;;;;;;11.20;7.57;;;20.60;46.60;;;;;;4957704;28;20044;-79
2022/04/24 12:29:15;;;;;;;11.80;6.25;;;20.70;46.70;;;;;;4954329;28;20039;-81
2022/04/24 12:31:41;;;;;;;11.00;6.85;;;20.80;46.50;;;;;;4955131;29;20027;-79
2022/04/24 12:34:07;;;;;;;10.13;7.40;;;20.90;46.40;;;;;;4956243;28;20035;-79
2022/04/24 12:36:33;;;;;;;9.13;6.68;;;20.90;46.30;;;;;;4954950;28;20027;-79
2022/04/24 12:38:59;;;;;;;10.70;6.30;;;20.90;46.10;;;;;;4938785;29;20066;-76
2022/04/24 12:41:27;;;;;;;10.00;5.95;;;21.00;46.00;;;;;;4956653;28;20570;-80
2022/04/24 12:43:58;;;;;;;12.02;7.07;;;20.90;45.50;;;;;;4953575;28;20033;-80